createdAt,value
2017-04-25T00:02:57.938Z,998.83
2017-04-25T00:07:53.921Z,999.07
2017-04-25T00:12:49.305Z,998.90
2017-04-25T00:22:45.562Z,998.93
2017-04-25T00:27:41.354Z,998.97
2017-04-25T00:32:37.573Z,998.99
2017-04-25T00:37:35.573Z,998.85
2017-04-25T00:42:36.641Z,998.84
2017-04-25T00:47:34.566Z,998.76
2017-04-25T00:57:31.996Z,998.52
2017-04-25T01:02:27.650Z,998.61
2017-04-25T01:07:28.358Z,998.64
2017-04-25T01:12:23.521Z,998.59
2017-04-25T01:17:24.522Z,998.69
2017-04-25T01:22:19.884Z,998.70
2017-04-25T01:27:15.089Z,998.42
2017-04-25T01:32:10.709Z,998.23
2017-04-25T01:37:06.350Z,998.32
2017-04-25T01:42:02.616Z,998.33
2017-04-25T01:46:58.345Z,998.35
2017-04-25T01:51:54.143Z,998.38
2017-04-25T01:56:49.680Z,998.19
2017-04-25T02:01:45.653Z,997.92
2017-04-25T02:06:40.745Z,997.79
2017-04-25T02:11:36.988Z,997.93
2017-04-25T02:16:32.745Z,998.15
2017-04-25T02:21:28.304Z,998.20
2017-04-25T02:26:23.960Z,998.07
2017-04-25T02:31:19.678Z,998.11
2017-04-25T02:36:15.268Z,998.12
2017-04-25T02:41:10.571Z,998.06
2017-04-25T02:46:06.887Z,998.02
2017-04-25T02:51:02.609Z,997.99
2017-04-25T02:55:58.148Z,997.85
2017-04-25T03:00:53.547Z,997.87
2017-04-25T03:05:49.489Z,997.84
2017-04-25T03:10:45.297Z,997.86
2017-04-25T03:15:40.796Z,997.84
2017-04-25T03:20:36.389Z,997.87
2017-04-25T03:25:32.122Z,997.86
2017-04-25T03:30:27.935Z,997.73
2017-04-25T03:35:23.970Z,997.81
2017-04-25T03:40:19.355Z,997.69
2017-04-25T03:45:18.545Z,997.75
2017-04-25T03:50:13.736Z,997.72
2017-04-25T03:55:09.377Z,997.79
2017-04-25T04:00:05.235Z,997.92
2017-04-25T04:05:01.081Z,997.91
2017-04-25T04:09:59.195Z,997.89
2017-04-25T04:14:54.691Z,997.94
2017-04-25T04:19:53.160Z,997.95
2017-04-25T04:29:50.915Z,998.02
2017-04-25T04:34:48.295Z,997.96
2017-04-25T04:39:44.875Z,998.10
2017-04-25T04:44:40.824Z,998.15
2017-04-25T04:49:36.534Z,998.20
2017-04-25T04:54:32.300Z,998.22
2017-04-25T04:59:28.027Z,998.25
2017-04-25T05:04:25.049Z,998.09
2017-04-25T05:09:20.607Z,998.15
2017-04-25T05:14:20.032Z,998.33
2017-04-25T05:24:18.147Z,998.30
2017-04-25T05:29:18.431Z,998.42
2017-04-25T05:39:18.929Z,998.52
2017-04-25T05:44:18.625Z,998.59
2017-04-25T05:59:17.164Z,998.72
2017-04-25T06:04:14.000Z,998.79
2017-04-25T06:09:15.329Z,998.95
2017-04-25T06:14:09.874Z,998.88
2017-04-25T06:19:05.895Z,998.99
2017-04-25T06:24:03.000Z,998.97
2017-04-25T06:29:00.926Z,999.14
2017-04-25T06:34:00.321Z,999.00
2017-04-25T06:38:56.936Z,999.05
2017-04-25T06:43:51.920Z,999.15
2017-04-25T06:48:48.270Z,999.12
2017-04-25T06:53:43.893Z,999.08
2017-04-25T06:58:40.805Z,999.02
2017-04-25T07:03:39.773Z,999.11
2017-04-25T07:08:35.037Z,998.97
2017-04-25T07:13:34.371Z,999.03
2017-04-25T07:18:30.602Z,999.04
2017-04-25T07:23:28.629Z,999.09
2017-04-25T07:28:24.319Z,999.14
2017-04-25T07:33:21.026Z,999.14
2017-04-25T07:38:17.855Z,999.13
2017-04-25T07:43:13.254Z,999.15
2017-04-25T07:48:09.893Z,999.02
2017-04-25T07:53:04.962Z,999.11
2017-04-25T07:58:00.307Z,999.26
2017-04-25T08:02:57.631Z,999.33
2017-04-25T08:07:55.932Z,999.32
2017-04-25T08:12:52.787Z,999.31
2017-04-25T08:17:47.824Z,999.29
2017-04-25T08:22:44.051Z,999.31
2017-04-25T08:27:39.284Z,999.29
2017-04-25T08:32:35.323Z,999.40
2017-04-25T08:37:31.573Z,999.45
2017-04-25T08:42:28.407Z,999.40
2017-04-25T08:47:23.519Z,999.32
2017-04-25T08:52:21.024Z,999.36
2017-04-25T08:57:15.746Z,999.33
2017-04-25T09:02:11.522Z,999.32
2017-04-25T09:07:10.992Z,999.48
2017-04-25T09:12:05.814Z,999.56
2017-04-25T09:17:01.722Z,999.49
2017-04-25T09:21:57.465Z,999.51
2017-04-25T09:26:53.732Z,999.61
2017-04-25T09:31:51.321Z,999.60
2017-04-25T09:36:47.586Z,999.59
2017-04-25T09:41:43.396Z,999.67
2017-04-25T09:46:38.679Z,999.73
2017-04-25T09:51:34.779Z,999.81
2017-04-25T09:56:30.025Z,999.77
2017-04-25T10:01:25.731Z,999.88
2017-04-25T10:06:26.538Z,999.73
2017-04-25T10:11:21.171Z,999.79
2017-04-25T10:16:15.995Z,999.72
2017-04-25T10:21:11.648Z,999.87
2017-04-25T10:26:07.006Z,999.98
2017-04-25T10:31:04.227Z,1000.05
2017-04-25T10:35:59.221Z,1000.20
2017-04-25T10:40:56.027Z,1000.12
2017-04-25T10:45:52.426Z,1000.26
2017-04-25T10:50:50.368Z,1000.32
2017-04-25T10:55:48.835Z,1000.21
2017-04-25T11:00:46.380Z,999.86
2017-04-25T11:05:44.188Z,999.99
2017-04-25T11:10:43.580Z,1000.07
2017-04-25T11:15:36.749Z,1000.03
2017-04-25T11:20:28.925Z,1000.64
2017-04-25T11:25:21.906Z,1000.79
2017-04-25T11:30:16.648Z,1000.70
2017-04-25T11:35:11.423Z,1000.71
2017-04-25T11:40:06.671Z,1000.72
2017-04-25T11:45:04.484Z,1000.77
2017-04-25T11:50:05.710Z,1000.78
2017-04-25T11:55:04.004Z,1000.78
2017-04-25T12:00:01.347Z,1000.68
2017-04-25T12:04:59.764Z,1000.89
2017-04-25T12:09:51.165Z,1000.84
2017-04-25T12:14:50.397Z,1000.88
2017-04-25T12:19:50.075Z,1000.87
2017-04-25T12:24:45.978Z,1000.94
2017-04-25T12:29:43.491Z,1000.88
2017-04-25T12:34:41.056Z,1001.01
2017-04-25T12:39:36.840Z,1000.78
2017-04-25T12:44:29.924Z,1000.82
2017-04-25T12:49:25.009Z,1001.09
2017-04-25T12:54:23.879Z,1001.01
2017-04-25T12:59:20.911Z,1000.89
2017-04-25T13:04:18.457Z,1000.91
2017-04-25T13:09:16.596Z,1000.87
2017-04-25T13:14:12.047Z,1000.95
2017-04-25T13:19:04.680Z,1001.20
2017-04-25T13:23:59.049Z,1001.26
2017-04-25T13:28:53.744Z,1001.27
2017-04-25T13:33:48.706Z,1001.20
2017-04-25T13:38:45.457Z,1001.39
2017-04-25T13:43:41.955Z,1001.26
2017-04-25T13:48:36.889Z,1001.44
2017-04-25T13:53:33.332Z,1001.52
2017-04-25T13:58:28.251Z,1001.58
2017-04-25T14:03:23.844Z,1001.52
2017-04-25T14:08:21.365Z,1001.56
2017-04-25T14:13:16.308Z,1001.55
2017-04-25T14:18:12.834Z,1001.71
2017-04-25T14:23:11.445Z,1001.64
2017-04-25T14:28:06.127Z,1001.82
2017-04-25T14:33:03.633Z,1001.68
2017-04-25T14:38:02.112Z,1001.71
2017-04-25T14:42:57.212Z,1001.76
2017-04-25T14:47:52.081Z,1001.81
2017-04-25T14:52:48.965Z,1001.79
2017-04-25T14:57:43.856Z,1001.87
2017-04-25T15:02:39.560Z,1001.91
2017-04-25T15:07:35.385Z,1001.81
2017-04-25T15:12:30.957Z,1001.81
2017-04-25T15:17:26.680Z,1001.87
2017-04-25T15:22:22.850Z,1001.95
2017-04-25T15:27:20.543Z,1002.05
2017-04-25T15:32:16.503Z,1001.86
2017-04-25T15:37:12.656Z,1001.98
2017-04-25T15:42:08.713Z,1002.08
2017-04-25T15:47:04.465Z,1002.08
2017-04-25T15:52:00.033Z,1002.19
2017-04-25T15:56:55.693Z,1002.17
2017-04-25T16:01:51.873Z,1002.14
2017-04-25T16:06:47.429Z,1002.12
2017-04-25T16:11:43.607Z,1002.22
2017-04-25T16:16:38.923Z,1002.19
2017-04-25T16:21:34.984Z,1002.33
2017-04-25T16:26:30.772Z,1002.32
2017-04-25T16:31:26.348Z,1002.23
2017-04-25T16:36:23.026Z,1002.41
2017-04-25T16:41:18.947Z,1002.47
2017-04-25T16:46:14.512Z,1002.58
2017-04-25T16:51:10.394Z,1002.47
2017-04-25T16:56:08.238Z,1002.47
2017-04-25T17:01:03.302Z,1002.54
2017-04-25T17:05:59.808Z,1002.61
2017-04-25T17:10:55.330Z,1002.54
2017-04-25T17:15:51.040Z,1002.50
2017-04-25T17:20:47.060Z,1002.62
2017-04-25T17:25:42.276Z,1002.63
2017-04-25T17:30:37.980Z,1002.61
2017-04-25T17:35:33.678Z,1002.66
2017-04-25T17:40:29.620Z,1002.56
2017-04-25T17:45:25.141Z,1002.68
2017-04-25T17:50:21.230Z,1002.68
2017-04-25T17:55:16.999Z,1002.60
2017-04-25T18:00:13.021Z,1002.62
2017-04-25T18:05:08.780Z,1002.66
2017-04-25T18:10:04.678Z,1002.69
2017-04-25T18:15:00.502Z,1002.68
2017-04-25T18:19:56.055Z,1002.69
2017-04-25T18:24:51.461Z,1002.73
2017-04-25T18:29:47.042Z,1002.70
2017-04-25T18:34:42.689Z,1002.76
2017-04-25T18:39:38.417Z,1002.78
2017-04-25T18:44:34.186Z,1002.80
2017-04-25T18:49:29.571Z,1002.79
2017-04-25T18:54:25.298Z,1002.91
2017-04-25T18:59:20.875Z,1002.82
2017-04-25T19:04:16.789Z,1002.98
2017-04-25T19:09:12.666Z,1003.06
2017-04-25T19:14:08.294Z,1003.10
2017-04-25T19:19:04.126Z,1003.00
2017-04-25T19:23:59.953Z,1003.04
2017-04-25T19:29:07.892Z,1003.22
2017-04-25T19:34:03.122Z,1003.22
2017-04-25T19:39:05.637Z,1003.24
2017-04-25T19:44:00.717Z,1003.33
2017-04-25T19:48:56.146Z,1003.29
2017-04-25T19:53:51.899Z,1003.26
2017-04-25T19:58:47.402Z,1003.35
2017-04-25T20:03:42.999Z,1003.36
2017-04-25T20:08:38.619Z,1003.38
2017-04-25T20:13:34.696Z,1003.34
2017-04-25T20:18:30.184Z,1003.43
2017-04-25T20:23:26.445Z,1003.47
2017-04-25T20:28:22.473Z,1003.45
2017-04-25T20:33:19.011Z,1003.34
2017-04-25T20:38:14.996Z,1003.41
2017-04-25T20:43:10.982Z,1003.30
2017-04-25T20:48:07.612Z,1003.32
2017-04-25T20:53:04.341Z,1003.21
2017-04-25T20:57:59.618Z,1003.33
2017-04-25T21:02:55.250Z,1003.30
2017-04-25T21:07:51.839Z,1003.23
2017-04-25T21:12:47.494Z,1003.25
2017-04-25T21:17:44.306Z,1003.28
2017-04-25T21:22:40.167Z,1003.29
2017-04-25T21:27:36.050Z,1003.35
2017-04-25T21:32:31.807Z,1003.32
2017-04-25T21:37:27.690Z,1003.30
2017-04-25T21:42:24.402Z,1003.21
2017-04-25T21:47:20.585Z,1003.28
2017-04-25T21:52:16.253Z,1003.37
2017-04-25T21:57:14.715Z,1003.32
2017-04-25T22:02:09.700Z,1003.42
2017-04-25T22:07:06.991Z,1003.32
2017-04-25T22:12:02.128Z,1003.31
2017-04-25T22:16:58.131Z,1003.25
2017-04-25T22:21:53.803Z,1003.30
2017-04-25T22:26:49.512Z,1003.34
2017-04-25T22:31:45.115Z,1003.34
2017-04-25T22:36:42.199Z,1003.16
2017-04-25T22:41:37.375Z,1003.31
2017-04-25T22:46:34.324Z,1003.33
2017-04-25T22:51:29.538Z,1003.37
2017-04-25T22:56:26.156Z,1003.37
2017-04-25T23:01:22.570Z,1003.50
2017-04-25T23:06:18.415Z,1003.65
2017-04-25T23:11:13.805Z,1003.59
2017-04-25T23:16:09.789Z,1003.64
2017-04-25T23:21:05.451Z,1003.56
2017-04-25T23:26:05.277Z,1003.62
2017-04-25T23:31:00.559Z,1003.60
2017-04-25T23:35:55.977Z,1003.63
2017-04-25T23:40:51.491Z,1003.58
2017-04-25T23:45:47.307Z,1003.62
2017-04-25T23:50:42.599Z,1003.60
2017-04-25T23:55:39.384Z,1003.69
